Latest Weather Observations for Mardie

IDW60801

Issued at 9:02 am WST Saturday 1 August 2015 (issued every 30 minutes, with the page automatically refreshed every 10 minutes)

About weather observations | Map of weather stations | Latest weather observations for WA | Other Formats
Station Details ID: 005008 Name: MARDIE Lat: -21.19 Lon: 115.98 Height: 11.0 m
Data from the previous 72 hours. | See also: Recent months at Mardie
Date/Time
WST
Temp
°C
App
Temp
°C
Dew
Point
Rel
Hum
%
Delta-T
°C
Wind Press
QNH
hPa
Press
MSL
hPa
Rain
since 9 am
mm
Dir
 
Spd
km/h
Gust
km/h
Spd
kts
Gust
kts
01/09:00am 22.3 20.6 17.2 73 3.1 SSW 22 30 12 16 1018.8 1018.7 0.0
01/08:30am 20.7 21.1 20.7 100 0.0 SSW 19 26 10 14 1018.6 1018.5 0.0
01/08:00am 18.7 19.7 18.7 100 0.0 SW 11 15 6 8 1018.2 1018.1 0.0
01/07:30am 17.1 18.4 17.1 100 0.0 SW 6 9 3 5 1017.8 1017.7 0.0
01/07:00am 16.5 17.0 16.5 100 0.0 SW 9 11 5 6 1017.5 1017.4 0.0
01/06:30am 16.5 17.4 16.5 100 0.0 SW 7 11 4 6 1017.0 1016.9 0.0
01/06:00am 16.9 17.9 16.9 100 0.0 SW 7 9 4 5 1016.7 1016.7 0.0
01/05:30am 17.4 18.6 17.4 100 0.0 SW 7 9 4 5 1016.5 1016.5 0.0
01/05:00am 17.7 18.3 17.7 100 0.0 SW 11 13 6 7 1016.3 1016.3 0.0
01/04:30am 17.7 18.7 17.7 100 0.0 SW 9 11 5 6 1016.2 1016.2 0.0
01/04:00am 17.9 19.0 17.9 100 0.0 SW 9 13 5 7 1016.2 1016.2 0.0
01/03:30am 18.3 19.2 18.3 100 0.0 SW 11 13 6 7 1016.1 1016.1 0.0
01/03:00am 18.2 19.4 18.2 100 0.0 SW 9 11 5 6 1016.2 1016.2 0.0
01/02:30am 18.3 19.5 18.3 100 0.0 SW 9 13 5 7 1016.2 1016.2 0.0
01/02:00am 19.1 19.9 19.1 100 0.0 SW 13 17 7 9 1016.3 1016.3 0.0
01/01:30am 19.4 20.4 19.4 100 0.0 SW 13 17 7 9 1016.5 1016.5 0.0
01/01:00am 19.9 21.4 19.7 99 0.1 SW 11 17 6 9 1016.6 1016.6 0.0
01/12:30am 20.4 22.1 20.2 99 0.1 SW 11 19 6 10 1016.7 1016.7 0.0
01/12:00am 20.8 22.8 20.8 100 0.0 SW 11 15 6 8 1016.7 1016.7 0.0
 
Date/Time
WST
Temp
°C
App
Temp
°C
Dew
Point
Rel
Hum
%
Delta-T
°C
Wind Press
QNH
hPa
Press
MSL
hPa
Rain
since 9 am
mm
Dir
 
Spd
km/h
Gust
km/h
Spd
kts
Gust
kts
31/11:30pm 21.0 23.1 21.0 100 0.0 WSW 11 17 6 9 1016.7 1016.7 0.0
31/11:00pm 21.2 23.4 21.2 100 0.0 WSW 11 15 6 8 1016.8 1016.8 0.0
31/10:30pm 21.6 23.3 21.6 100 0.0 W 15 20 8 11 1016.7 1016.7 0.0
31/10:00pm 21.6 23.3 21.6 100 0.0 W 15 22 8 12 1016.6 1016.6 0.0
31/09:30pm 21.6 23.3 21.6 100 0.0 W 15 20 8 11 1016.5 1016.5 0.0
31/09:00pm 21.7 23.4 21.7 100 0.0 W 15 20 8 11 1016.5 1016.5 0.0
31/08:30pm 21.7 23.8 21.7 100 0.0 W 13 20 7 11 1016.2 1016.2 0.0
31/08:00pm 21.9 23.7 21.1 95 0.5 W 13 19 7 10 1015.9 1015.9 0.0
31/07:30pm 21.9 23.2 20.2 90 1.1 W 13 20 7 11 1015.7 1015.7 0.0
31/07:00pm 22.2 23.1 19.2 83 1.9 W 13 19 7 10 1015.2 1015.2 0.0
31/06:30pm 22.8 22.6 17.5 72 3.3 W 15 20 8 11 1014.9 1014.9 0.0
31/06:00pm 23.6 22.7 15.9 62 4.7 W 15 20 8 11 1014.6 1014.6 0.0
31/05:30pm 25.2 22.8 14.3 50 6.5 W 20 26 11 14 1014.4 1014.4 0.0
31/05:00pm 26.2 24.4 15.9 53 6.3 W 20 28 11 15 1014.2 1014.2 0.0
31/04:30pm 27.0 24.6 14.4 46 7.5 WNW 20 26 11 14 1014.1 1014.1 0.0
31/04:00pm 28.5 26.2 14.0 41 8.7 WNW 19 24 10 13 1014.1 1014.1 0.0
31/03:30pm 28.2 26.0 14.4 42 8.3 WNW 19 24 10 13 1014.2 1014.2 0.0
31/03:00pm 28.3 25.7 13.8 41 8.6 W 20 26 11 14 1014.3 1014.3 0.0
31/02:30pm 28.1 25.6 14.0 42 8.4 WNW 20 28 11 15 1014.4 1014.4 0.0
31/02:00pm 28.2 25.6 13.7 41 8.6 WNW 20 28 11 15 1014.8 1014.8 0.0
31/01:30pm 28.9 26.9 12.8 37 9.5 WNW 15 22 8 12 1015.1 1015.1 0.0
31/01:00pm 27.9 25.1 12.7 39 8.9 WNW 19 24 10 13 1015.6 1015.6 0.0
31/12:30pm 28.9 27.0 11.9 35 9.9 WNW 13 28 7 15 1016.0 1016.0 0.0
31/12:00pm 28.5 26.5 11.6 35 9.7 WNW 13 22 7 12 1016.2 1016.2 0.0
31/11:30am 29.4 27.0 11.5 33 10.3 W 15 24 8 13 1016.4 1016.4 0.0
31/11:00am 29.0 28.6 11.1 33 10.2 SE 4 6 2 3 1016.7 1016.7 0.0
31/10:30am 28.0 27.7 10.2 33 10.0 SE 2 7 1 4 1017.3 1017.2 0.0
31/10:00am 26.8 27.1 10.9 37 9.0 CALM 0 4 0 2 1017.7 1017.6 0.0
31/09:30am 25.9 26.3 12.4 43 7.8 SE 2 4 1 2 1017.8 1017.7 0.0
31/09:00am 24.4 25.1 13.3 50 6.4 SE 2 4 1 2 1017.7 1017.6 0.0
31/08:30am 21.9 23.5 15.0 65 4.1 CALM 0 0 0 0 1017.4 1017.3 0.0
31/08:00am 19.2 20.7 15.7 80 2.1 SE 2 4 1 2 1017.0 1016.9 0.0
31/07:30am 16.7 17.4 15.7 94 0.6 SE 6 7 3 4 1016.6 1016.6 0.0
31/07:00am 14.9 15.2 14.4 97 0.3 SE 6 6 3 3 1016.4 1016.4 0.0
31/06:30am 14.6 14.6 14.1 97 0.3 SE 7 7 4 4 1016.4 1016.4 0.0
31/06:00am 14.8 14.7 14.0 95 0.4 SE 7 7 4 4 1016.2 1016.2 0.0
31/05:30am 15.3 15.5 14.7 96 0.3 SE 7 7 4 4 1016.1 1016.1 0.0
31/05:00am 15.1 15.8 14.5 96 0.3 SE 4 6 2 3 1016.2 1016.2 0.0
31/04:30am 15.4 15.6 14.8 96 0.3 SE 7 7 4 4 1016.3 1016.3 0.0
31/04:00am 15.7 15.8 15.4 98 0.2 SE 9 9 5 5 1016.3 1016.3 0.0
31/03:30am 16.1 16.3 15.8 98 0.2 SE 9 11 5 6 1016.4 1016.4 0.0
31/03:00am 16.3 16.8 15.5 95 0.5 SSE 7 9 4 5 1016.5 1016.5 0.0
31/02:30am 16.7 16.7 15.1 90 0.9 SSE 9 11 5 6 1016.7 1016.7 0.0
31/02:00am 16.3 15.4 13.6 84 1.5 SSE 11 11 6 6 1017.1 1017.0 0.0
31/01:30am 16.4 15.7 13.1 81 1.8 SSE 9 11 5 6 1017.6 1017.5 0.0
31/01:00am 16.5 15.6 12.7 78 2.1 S 9 9 5 5 1018.0 1017.9 0.0
31/12:30am 17.1 16.6 12.8 76 2.4 S 7 7 4 4 1018.4 1018.3 0.0
31/12:00am 17.2 17.0 13.1 77 2.3 SSW 6 7 3 4 1018.6 1018.5 0.0
 
Date/Time
WST
Temp
°C
App
Temp
°C
Dew
Point
Rel
Hum
%
Delta-T
°C
Wind Press
QNH
hPa
Press
MSL
hPa
Rain
since 9 am
mm
Dir
 
Spd
km/h
Gust
km/h
Spd
kts
Gust
kts
30/11:30pm 17.5 17.4 13.4 77 2.3 SSW 6 7 3 4 1018.7 1018.6 0.0
30/11:00pm 18.0 18.2 14.1 78 2.2 SSW 6 7 3 4 1019.0 1018.9 0.0
30/10:30pm 18.1 18.5 13.8 76 2.4 SSW 4 6 2 3 1019.1 1019.0 0.0
30/10:00pm 18.5 18.6 14.4 77 2.4 SSW 7 9 4 5 1019.2 1019.1 0.0
30/09:30pm 19.2 20.1 15.1 77 2.4 N 4 6 2 3 1019.0 1018.9 0.0
30/09:00pm 19.5 21.3 15.4 77 2.4 CALM 0 0 0 0 1018.9 1018.8 0.0
30/08:30pm 20.9 22.9 16.1 74 2.9 CALM 0 2 0 1 1018.5 1018.4 0.0
30/08:00pm 21.6 23.7 16.3 72 3.2 CALM 0 4 0 2 1018.3 1018.2 0.0
30/07:30pm 22.0 22.9 16.1 69 3.6 N 6 9 3 5 1018.1 1018.0 0.0
30/07:00pm 22.7 23.2 15.5 64 4.3 N 7 11 4 6 1017.9 1017.8 0.0
30/06:30pm 23.5 23.3 14.8 58 5.2 N 9 13 5 7 1017.7 1017.6 0.0
30/06:00pm 25.0 24.2 12.9 47 7.0 N 9 17 5 9 1017.4 1017.3 0.0
30/05:30pm 26.6 24.1 11.1 38 8.8 N 15 19 8 10 1017.2 1017.1 0.0
30/05:00pm 27.7 24.1 10.0 33 9.9 N 19 30 10 16 1016.8 1016.8 0.0
30/04:30pm 28.6 25.3 10.8 33 10.1 N 19 24 10 13 1016.7 1016.7 0.0
30/04:00pm 29.2 26.5 11.7 34 10.1 N 17 28 9 15 1016.6 1016.6 0.0
30/03:30pm 29.9 27.2 12.8 35 10.1 N 19 26 10 14 1016.6 1016.6 0.0
30/03:00pm 29.9 27.4 12.3 33 10.3 N 17 26 9 14 1016.7 1016.7 0.0
30/02:30pm 30.5 27.7 11.5 31 11.0 N 17 28 9 15 1017.0 1016.9 0.0
30/02:00pm 30.2 27.1 11.7 32 10.7 N 19 26 10 14 1017.2 1017.1 0.0
30/01:30pm 30.8 27.6 11.2 30 11.3 N 19 26 10 14 1017.4 1017.3 0.0
30/01:00pm 31.3 28.7 10.6 28 11.9 N 15 22 8 12 1017.6 1017.5 0.0
30/12:30pm 31.3 28.9 10.1 27 12.1 N 13 20 7 11 1018.1 1018.0 0.0
30/12:00pm 32.1 31.0 10.8 27 12.3 N 7 17 4 9 1018.5 1018.4 0.0
30/11:30am 31.5 30.5 10.2 27 12.2 NNE 6 15 3 8 1019.0 1018.9 0.0
30/11:00am 30.8 29.8 10.2 28 11.7 NE 6 11 3 6 1019.5 1019.4 0.0
30/10:30am 29.8 29.1 9.9 29 11.2 NE 4 13 2 7 1019.8 1019.7 0.0
30/10:00am 28.6 27.0 10.3 32 10.3 ESE 9 13 5 7 1020.0 1019.9 0.0
30/09:30am 27.5 25.9 10.2 34 9.7 ESE 9 15 5 8 1019.9 1019.8 0.0
30/09:00am 25.4 24.2 11.6 42 7.8 ESE 9 11 5 6 1019.8 1019.7 0.0
30/08:30am 23.4 22.9 12.1 49 6.4 SE 6 7 3 4 1019.5 1019.4 0.0
30/08:00am 21.3 20.8 12.7 58 4.9 SE 7 9 4 5 1019.3 1019.2 0.0
30/07:30am 18.8 18.2 12.3 66 3.6 ESE 7 9 4 5 1018.9 1018.8 0.0
30/07:00am 16.7 15.4 11.2 70 3.0 SE 9 11 5 6 1018.5 1018.4 0.0
30/06:30am 16.6 15.2 10.9 69 3.1 SSE 9 9 5 5 1018.3 1018.2 0.0
30/06:00am 16.5 15.5 11.0 70 2.9 SSE 7 9 4 5 1017.9 1017.8 0.0
30/05:30am 16.9 16.0 11.2 69 3.1 S 7 7 4 4 1017.7 1017.6 0.0
30/05:00am 17.3 16.7 11.8 70 3.0 S 6 7 3 4 1017.6 1017.5 0.0
30/04:30am 17.1 16.5 11.6 70 3.0 E 6 6 3 3 1017.6 1017.5 0.0
30/04:00am 17.5 16.8 12.0 70 3.0 E 7 7 4 4 1017.5 1017.4 0.0
30/03:30am 17.6 16.8 11.6 68 3.3 ESE 7 9 4 5 1017.8 1017.7 0.0
30/03:00am 17.9 17.4 11.9 68 3.3 ESE 6 6 3 3 1018.1 1018.0 0.0
30/02:30am 17.7 17.5 11.9 69 3.2 ESE 4 4 2 2 1018.3 1018.2 0.0
30/02:00am 18.0 17.5 12.0 68 3.3 ESE 6 6 3 3 1018.4 1018.3 0.0
30/01:30am 18.2 17.5 12.0 67 3.4 ESE 7 9 4 5 1018.5 1018.4 0.0
30/01:00am 18.5 17.7 11.6 64 3.8 SE 7 9 4 5 1018.8 1018.7 0.0
30/12:30am 19.3 18.5 11.8 62 4.1 SE 7 9 4 5 1018.8 1018.7 0.0
30/12:00am 18.9 18.3 12.2 65 3.7 S 7 11 4 6 1019.0 1018.9 0.0
 
Date/Time
WST
Temp
°C
App
Temp
°C
Dew
Point
Rel
Hum
%
Delta-T
°C
Wind Press
QNH
hPa
Press
MSL
hPa
Rain
since 9 am
mm
Dir
 
Spd
km/h
Gust
km/h
Spd
kts
Gust
kts
29/11:30pm 19.5 19.0 12.0 62 4.2 S 6 6 3 3 1019.1 1019.0 0.0
29/11:00pm 19.6 19.1 12.1 62 4.2 S 6 7 3 4 1019.3 1019.2 0.0
29/10:30pm 19.6 18.9 12.1 62 4.2 S 7 9 4 5 1019.3 1019.2 0.0
29/10:00pm 20.3 19.8 12.5 61 4.4 S 7 9 4 5 1019.3 1019.2 0.0
29/09:30pm 20.8 20.4 13.0 61 4.4 SSW 7 9 4 5 1019.3 1019.2 0.0
29/09:00pm 21.2 20.8 12.9 59 4.7 NNW 7 9 4 5 1019.3 1019.2 0.0
29/08:30pm 21.7 21.7 12.5 56 5.2 NNW 4 4 2 2 1019.2 1019.1 0.0
29/08:00pm 22.1 23.0 12.9 56 5.2 CALM 0 2 0 1 1019.0 1018.9 0.0
29/07:30pm 23.0 24.1 13.5 55 5.5 CALM 0 0 0 0 1018.5 1018.4 0.0
29/07:00pm 23.6 24.7 13.5 53 5.9 CALM 0 0 0 0 1018.2 1018.1 0.0
29/06:30pm 24.4 25.3 13.9 52 6.2 NNW 2 6 1 3 1017.9 1017.8 0.0
29/06:00pm 25.5 25.4 13.4 47 7.1 NNW 6 11 3 6 1017.5 1017.4 0.0
29/05:30pm 27.3 26.2 12.1 39 8.8 N 9 17 5 9 1017.2 1017.1 0.0
29/05:00pm 28.9 26.4 11.0 33 10.2 N 15 20 8 11 1017.0 1016.9 0.0
29/04:30pm 29.3 26.9 11.4 33 10.3 N 15 24 8 13 1017.0 1016.9 0.0
29/04:00pm 30.1 27.1 10.6 30 11.1 N 17 24 9 13 1017.0 1016.9 0.0
29/03:30pm 30.5 27.5 10.5 29 11.4 N 17 22 9 12 1017.1 1017.0 0.0
29/03:00pm 31.3 28.4 9.5 26 12.3 N 15 22 8 12 1017.2 1017.1 0.0
29/02:30pm 31.7 28.8 9.8 26 12.4 NNW 15 24 8 13 1017.2 1017.1 0.0
29/02:00pm 33.3 30.5 10.0 24 13.4 N 15 22 8 12 1017.1 1017.0 0.0
29/01:30pm 33.3 30.9 8.7 22 13.8 ENE 11 30 6 16 1017.4 1017.3 0.0
29/01:00pm 33.4 31.7 7.4 20 14.3 NE 6 20 3 11 1017.9 1017.8 0.0
29/12:30pm 32.7 30.6 8.2 22 13.6 ESE 9 22 5 12 1018.3 1018.2 0.0
29/12:00pm 31.9 29.0 8.2 23 13.1 E 13 24 7 13 1018.9 1018.8 0.0
29/11:30am 31.4 28.9 8.4 24 12.8 E 11 20 6 11 1019.4 1019.3 0.0
29/11:00am 30.8 28.8 8.5 25 12.3 ESE 9 19 5 10 1019.8 1019.7 0.0
29/10:30am 30.1 26.9 8.5 26 11.9 ESE 15 20 8 11 1020.1 1020.0 0.0
29/10:00am 29.1 27.4 9.8 30 10.8 SE 9 13 5 7 1020.4 1020.3 0.0
29/09:30am 27.7 25.5 9.5 32 10.1 ESE 11 19 6 10 1020.4 1020.3 0.0

Other Formats:

Comma delimited format used in spreadsheet applications
http://www.bom.gov.au/fwo/IDW60801/IDW60801.94306.axf

JavaScript Object Notation format (JSON) in row-major order
http://www.bom.gov.au/fwo/IDW60801/IDW60801.94306.json